Time;durP1;ratioP1;P1;durP2;ratioP2;P2;SDS_P1;SDS_P2;PMS_P1;PMS_P2;Temp;Humidity;BMP_temperature;BMP_pressure;BME280_temperature;BME280_humidity;BME280_pressure;Samples;Min_cycle;Max_cycle;Signal;HPM_P1;HPM_P2
2021/03/28 00:00:01;;;;;;;13.00;3.67;;;7.60;1.00;;;;;;5081001;28;20196;-61
2021/03/28 00:02:48;;;;;;;15.60;3.83;;;7.70;1.00;;;;;;5075856;28;20203;-59
2021/03/28 00:05:28;;;;;;;9.00;3.03;;;7.70;1.00;;;;;;5077446;28;20209;-60
2021/03/28 00:08:22;;;;;;;9.93;3.33;;;7.70;1.00;;;;;;5080650;28;20671;-58
2021/03/28 00:10:52;;;;;;;13.17;3.27;;;7.70;1.00;;;;;;5072146;28;20730;-58
2021/03/28 00:13:20;;;;;;;12.57;3.50;;;7.70;1.00;;;;;;5083119;28;20306;-58
2021/03/28 00:15:59;;;;;;;10.07;3.17;;;7.70;1.00;;;;;;5062445;28;20692;-58
2021/03/28 00:18:57;;;;;;;9.77;2.93;;;7.70;1.00;;;;;;5079769;28;20207;-60
2021/03/28 00:21:33;;;;;;;9.50;3.47;;;7.70;1.00;;;;;;5063369;28;20203;-60
2021/03/28 00:24:11;;;;;;;12.87;3.03;;;7.60;1.00;;;;;;5085175;28;20626;-58
2021/03/28 00:26:42;;;;;;;9.27;2.57;;;7.60;1.00;;;;;;5084143;28;20276;-60
2021/03/28 00:29:23;;;;;;;5.10;1.57;;;7.60;1.00;;;;;;5085034;28;20203;-58
2021/03/28 00:32:02;;;;;;;7.03;2.50;;;7.50;1.00;;;;;;5082585;28;20314;-58
2021/03/28 00:34:32;;;;;;;14.60;2.63;;;7.50;1.00;;;;;;5084709;28;20330;-59
2021/03/28 00:37:18;;;;;;;10.93;3.20;;;7.50;1.00;;;;;;5082943;28;20226;-60
2021/03/28 00:39:52;;;;;;;5.97;1.67;;;7.40;1.00;;;;;;5080990;28;20565;-58
2021/03/28 00:42:36;;;;;;;8.93;2.23;;;7.40;1.00;;;;;;5082722;28;20251;-58
2021/03/28 00:45:22;;;;;;;9.27;2.23;;;7.30;1.00;;;;;;5082450;28;20644;-60
2021/03/28 00:48:02;;;;;;;7.13;2.17;;;7.30;1.00;;;;;;5081183;28;20316;-59
2021/03/28 00:50:56;;;;;;;6.13;1.70;;;7.30;1.00;;;;;;5082298;28;20557;-58
2021/03/28 00:53:36;;;;;;;12.07;2.40;;;7.30;99.90;;;;;;5084756;28;20242;-58
2021/03/28 00:56:19;;;;;;;8.23;2.43;;;7.30;99.90;;;;;;5082550;28;20295;-59
2021/03/28 00:58:55;;;;;;;4.40;1.80;;;7.30;99.90;;;;;;5081002;28;20200;-58
2021/03/28 01:01:33;;;;;;;3.93;1.93;;;7.20;99.90;;;;;;5078747;28;20240;-58
2021/03/28 01:04:24;;;;;;;5.47;1.90;;;7.20;99.90;;;;;;5080099;28;20300;-58
2021/03/28 01:07:00;;;;;;;5.23;1.90;;;7.10;99.90;;;;;;5080561;28;20232;-58
2021/03/28 01:09:57;;;;;;;5.77;2.30;;;7.10;99.90;;;;;;5080448;28;20259;-57
2021/03/28 01:12:42;;;;;;;6.03;2.17;;;7.20;99.90;;;;;;5081057;28;20209;-59
2021/03/28 01:15:37;;;;;;;13.10;2.93;;;7.10;99.90;;;;;;5079650;28;20203;-58
2021/03/28 01:18:25;;;;;;;9.73;2.00;;;7.00;99.90;;;;;;5078240;28;20292;-58
2021/03/28 01:21:19;;;;;;;8.97;2.80;;;7.10;99.90;;;;;;5080828;28;20289;-58
2021/03/28 01:24:03;;;;;;;8.03;2.30;;;7.00;99.90;;;;;;5080839;28;20228;-59
2021/03/28 01:26:42;;;;;;;3.93;1.67;;;7.00;99.90;;;;;;5079469;28;20646;-58
2021/03/28 01:29:28;;;;;;;3.93;2.00;;;6.90;99.90;;;;;;5081709;28;20297;-59
2021/03/28 01:32:05;;;;;;;5.33;1.73;;;6.90;99.90;;;;;;5079027;28;20295;-57
2021/03/28 01:34:33;;;;;;;7.77;1.90;;;6.90;99.90;;;;;;5078777;28;20569;-58
2021/03/28 01:37:06;;;;;;;5.87;1.90;;;7.00;99.90;;;;;;5060206;28;20228;-58
2021/03/28 01:40:08;;;;;;;11.90;1.93;;;7.00;99.90;;;;;;5080861;28;20300;-60
2021/03/28 01:42:57;;;;;;;6.10;1.77;;;7.00;99.90;;;;;;5066673;28;20252;-59
2021/03/28 01:45:42;;;;;;;10.60;2.07;;;7.00;99.90;;;;;;5078720;28;20194;-57
2021/03/28 01:48:37;;;;;;;3.43;1.50;;;6.90;99.90;;;;;;5077772;28;20749;-58
2021/03/28 01:51:15;;;;;;;6.80;1.77;;;6.80;99.90;;;;;;5052273;28;20228;-58
2021/03/28 01:54:13;;;;;;;6.60;1.87;;;6.80;99.90;;;;;;5081194;28;20240;-57
2021/03/28 01:57:12;;;;;;;4.90;1.77;;;6.80;99.90;;;;;;5084351;28;20593;-58
2021/03/28 02:00:11;;;;;;;3.50;1.70;;;6.80;99.90;;;;;;5078771;28;20360;-58
2021/03/28 02:02:52;;;;;;;5.00;1.57;;;6.70;99.90;;;;;;5085122;28;20234;-58
2021/03/28 02:05:25;;;;;;;7.93;1.87;;;6.70;99.90;;;;;;5084174;28;20289;-59
2021/03/28 02:08:02;;;;;;;10.57;2.40;;;6.70;99.90;;;;;;5085986;28;20212;-58
2021/03/28 02:10:58;;;;;;;7.73;1.90;;;6.70;99.90;;;;;;5084921;28;20683;-60
2021/03/28 02:13:51;;;;;;;6.83;1.67;;;6.70;99.90;;;;;;5085472;28;20209;-60
2021/03/28 02:16:42;;;;;;;7.07;1.90;;;6.60;99.90;;;;;;5085476;28;20335;-60
2021/03/28 02:19:22;;;;;;;12.87;1.97;;;6.70;99.90;;;;;;5084496;28;20189;-59
2021/03/28 02:22:11;;;;;;;5.03;1.97;;;6.70;99.90;;;;;;5085337;28;20277;-59
2021/03/28 02:24:38;;;;;;;4.60;1.57;;;6.80;99.90;;;;;;5088167;28;20201;-60
2021/03/28 02:27:10;;;;;;;7.03;2.43;;;6.70;99.90;;;;;;5085806;28;20648;-58
2021/03/28 02:29:59;;;;;;;7.70;1.70;;;6.70;99.90;;;;;;5089103;28;20291;-58
2021/03/28 02:32:49;;;;;;;5.03;2.10;;;6.60;99.90;;;;;;5090805;28;20345;-60
2021/03/28 02:35:36;;;;;;;8.00;1.83;;;6.70;99.90;;;;;;5084534;28;20289;-58
2021/03/28 02:38:23;;;;;;;6.87;1.50;;;6.60;99.90;;;;;;5083504;28;20224;-58
2021/03/28 02:41:11;;;;;;;6.43;1.93;;;6.60;99.90;;;;;;5087618;28;20758;-59
2021/03/28 02:43:48;;;;;;;5.63;1.93;;;6.60;99.90;;;;;;5084684;28;20303;-57
2021/03/28 02:46:18;;;;;;;14.50;2.10;;;6.60;99.90;;;;;;5082996;28;20235;-59
2021/03/28 02:49:25;;;;;;;12.10;2.20;;;6.50;99.90;;;;;;5083716;28;20321;-58
2021/03/28 02:52:01;;;;;;;7.13;1.97;;;6.50;99.90;;;;;;5085371;28;20222;-58
2021/03/28 02:54:49;;;;;;;6.97;1.53;;;6.50;99.90;;;;;;5084679;28;20599;-57
2021/03/28 02:57:35;;;;;;;7.83;2.40;;;6.50;99.90;;;;;;5083919;28;20276;-60
2021/03/28 03:00:26;;;;;;;7.73;2.10;;;6.50;99.90;;;;;;5085556;28;20205;-59
2021/03/28 03:03:10;;;;;;;9.10;2.63;;;6.40;99.90;;;;;;5082255;28;20232;-59
2021/03/28 03:05:54;;;;;;;11.90;2.23;;;6.40;99.90;;;;;;5082064;28;20615;-60
2021/03/28 03:08:40;;;;;;;9.73;2.70;;;6.40;99.90;;;;;;5084275;28;20287;-59
2021/03/28 03:11:12;;;;;;;7.07;1.80;;;6.40;99.90;;;;;;5085033;28;20232;-61
2021/03/28 03:13:48;;;;;;;4.93;2.10;;;6.40;99.90;;;;;;5086983;28;20303;-59
2021/03/28 03:16:59;;;;;;;7.77;2.80;;;6.40;99.90;;;;;;5085085;28;20228;-58
2021/03/28 03:19:43;;;;;;;6.40;1.97;;;6.40;99.90;;;;;;5025979;28;20295;-59
2021/03/28 03:22:50;;;;;;;5.50;2.27;;;6.50;99.90;;;;;;5021830;28;20198;-58
2021/03/28 03:25:34;;;;;;;7.70;1.67;;;6.50;99.90;;;;;;5080714;28;20201;-58
2021/03/28 03:28:22;;;;;;;5.83;1.40;;;6.50;99.90;;;;;;5084298;28;20294;-60
2021/03/28 03:31:10;;;;;;;7.07;2.13;;;6.50;99.90;;;;;;5086437;28;20372;-57
2021/03/28 03:34:18;;;;;;;5.93;1.97;;;6.50;99.90;;;;;;5083640;28;20563;-59
2021/03/28 03:37:10;;;;;;;5.87;1.60;;;6.50;99.90;;;;;;5080740;28;20277;-58
2021/03/28 03:40:06;;;;;;;7.33;2.03;;;6.50;99.90;;;;;;5087426;28;20198;-57
2021/03/28 03:42:41;;;;;;;6.77;1.60;;;6.50;99.90;;;;;;5082610;28;20297;-60
2021/03/28 03:45:45;;;;;;;6.73;2.43;;;6.50;99.90;;;;;;5083473;28;20702;-58
2021/03/28 03:48:30;;;;;;;3.93;2.00;;;6.50;99.90;;;;;;5066737;28;20235;-58
2021/03/28 03:51:18;;;;;;;7.17;1.47;;;6.50;99.90;;;;;;5083026;28;20230;-58
2021/03/28 03:54:01;;;;;;;7.67;2.00;;;6.60;99.90;;;;;;5084296;28;20275;-60
2021/03/28 03:57:01;;;;;;;7.60;2.20;;;6.60;99.90;;;;;;5084833;28;20202;-58
2021/03/28 04:00:00;;;;;;;8.33;1.97;;;6.70;99.90;;;;;;5084149;28;20306;-58
2021/03/28 04:02:33;;;;;;;5.70;2.13;;;6.60;99.90;;;;;;5084871;28;20296;-58
2021/03/28 04:05:18;;;;;;;7.70;1.80;;;6.60;99.90;;;;;;5081575;28;20283;-58
2021/03/28 04:08:17;;;;;;;5.60;1.73;;;6.60;99.90;;;;;;5084955;28;20206;-58
2021/03/28 04:10:58;;;;;;;5.13;2.03;;;6.60;99.90;;;;;;5084053;28;20202;-58
2021/03/28 04:13:46;;;;;;;9.80;2.13;;;6.60;99.90;;;;;;5084563;28;20290;-59
2021/03/28 04:16:23;;;;;;;7.13;1.77;;;6.60;99.90;;;;;;5083053;28;20555;-59
2021/03/28 04:19:03;;;;;;;5.50;1.83;;;6.50;99.90;;;;;;5084931;28;20188;-59
2021/03/28 04:22:18;;;;;;;8.97;1.63;;;6.60;99.90;;;;;;5083232;28;20650;-58
2021/03/28 04:25:02;;;;;;;5.80;1.80;;;6.60;99.90;;;;;;5079815;28;20286;-59
2021/03/28 04:27:34;;;;;;;12.00;2.30;;;6.60;99.90;;;;;;5084088;28;20711;-59
2021/03/28 04:30:00;;;;;;;5.33;1.77;;;6.70;99.90;;;;;;5083654;28;20608;-59
2021/03/28 04:32:50;;;;;;;6.40;1.63;;;6.70;99.90;;;;;;5080654;28;20605;-59
2021/03/28 04:35:40;;;;;;;7.53;1.67;;;6.80;99.90;;;;;;5081128;28;20289;-58
2021/03/28 04:38:36;;;;;;;4.03;1.97;;;6.80;99.90;;;;;;5086246;28;20196;-58
2021/03/28 04:41:37;;;;;;;5.90;1.80;;;6.90;99.90;;;;;;5084354;28;20210;-58
2021/03/28 04:44:36;;;;;;;2.47;1.60;;;6.90;99.90;;;;;;5083395;28;20280;-58
2021/03/28 04:47:22;;;;;;;8.03;2.67;;;7.00;99.90;;;;;;5078879;28;20201;-59
2021/03/28 04:50:26;;;;;;;6.70;1.83;;;7.00;99.90;;;;;;5081608;28;20239;-59
2021/03/28 04:53:20;;;;;;;2.70;1.63;;;7.00;99.90;;;;;;5084474;28;20241;-59
2021/03/28 04:56:26;;;;;;;3.80;1.73;;;7.00;99.90;;;;;;5084259;28;20256;-58
2021/03/28 04:59:17;;;;;;;3.67;1.60;;;7.00;99.90;;;;;;5065304;28;20268;-58
2021/03/28 05:02:23;;;;;;;8.80;2.80;;;7.00;99.90;;;;;;5080788;28;20516;-60
2021/03/28 05:05:17;;;;;;;9.43;2.33;;;7.00;99.90;;;;;;5081251;28;20275;-58
2021/03/28 05:07:53;;;;;;;6.03;1.30;;;7.10;99.90;;;;;;5083818;28;20683;-60
2021/03/28 05:10:53;;;;;;;3.00;1.30;;;7.10;99.90;;;;;;5083536;28;21847;-58
2021/03/28 05:13:32;;;;;;;6.20;1.67;;;7.10;99.90;;;;;;5083978;28;20606;-58
2021/03/28 05:15:58;;;;;;;6.03;1.43;;;7.10;99.90;;;;;;5082728;28;20203;-58
2021/03/28 05:18:51;;;;;;;2.93;1.30;;;7.20;99.90;;;;;;5082775;28;20233;-58
2021/03/28 05:21:33;;;;;;;3.43;1.50;;;7.20;99.90;;;;;;5084006;28;20202;-60
2021/03/28 05:24:33;;;;;;;4.73;2.10;;;7.30;99.90;;;;;;5080818;28;20695;-60
2021/03/28 05:27:21;;;;;;;7.07;1.90;;;7.30;99.90;;;;;;5081134;28;20189;-58
2021/03/28 05:29:56;;;;;;;4.10;1.53;;;7.40;99.90;;;;;;5082127;28;20239;-59
2021/03/28 05:33:00;;;;;;;3.93;1.40;;;7.40;99.90;;;;;;5081623;28;20246;-58
2021/03/28 05:35:49;;;;;;;4.93;1.80;;;7.40;99.90;;;;;;5078051;28;21851;-59
2021/03/28 05:38:24;;;;;;;5.03;1.53;;;7.40;99.90;;;;;;5084748;28;20274;-59
2021/03/28 05:41:09;;;;;;;6.00;1.30;;;7.50;99.90;;;;;;5079414;28;20594;-59
2021/03/28 05:43:42;;;;;;;5.17;1.47;;;7.40;99.90;;;;;;5080053;28;20215;-59
2021/03/28 05:46:21;;;;;;;4.53;1.73;;;7.50;99.90;;;;;;5081765;28;20210;-57
2021/03/28 05:49:28;;;;;;;3.40;1.23;;;7.50;99.90;;;;;;5079905;28;20315;-58
2021/03/28 05:52:16;;;;;;;5.50;1.30;;;7.50;99.90;;;;;;5060771;28;20390;-59
2021/03/28 05:55:01;;;;;;;3.93;1.57;;;7.50;99.90;;;;;;5080799;28;20267;-57
2021/03/28 05:57:33;;;;;;;7.27;2.03;;;7.50;99.90;;;;;;5083051;28;20194;-60
2021/03/28 06:00:11;;;;;;;3.23;1.53;;;7.50;99.90;;;;;;5082925;28;20198;-58
2021/03/28 06:03:06;;;;;;;4.57;2.27;;;7.50;99.90;;;;;;5079060;28;20604;-59
2021/03/28 06:05:50;;;;;;;3.80;1.20;;;7.50;99.90;;;;;;5080204;28;20241;-58
2021/03/28 06:08:40;;;;;;;6.37;1.00;;;7.50;99.90;;;;;;5080979;28;20198;-58
2021/03/28 06:11:44;;;;;;;8.30;1.43;;;7.50;99.90;;;;;;5082509;28;20251;-58
2021/03/28 06:14:32;;;;;;;5.77;2.20;;;7.60;99.90;;;;;;5079263;28;20710;-58
2021/03/28 06:17:20;;;;;;;4.30;1.63;;;7.60;99.90;;;;;;5081836;28;20194;-59
2021/03/28 06:20:15;;;;;;;7.07;1.83;;;7.70;99.90;;;;;;5083130;28;20323;-59
2021/03/28 06:22:56;;;;;;;7.70;2.00;;;7.70;99.90;;;;;;5082089;28;20674;-57
2021/03/28 06:25:41;;;;;;;6.03;1.47;;;7.70;99.90;;;;;;5084819;28;20488;-59
2021/03/28 06:28:46;;;;;;;8.10;1.93;;;7.80;99.90;;;;;;5081528;28;20239;-58
2021/03/28 06:31:37;;;;;;;6.60;1.93;;;7.80;99.90;;;;;;5079497;28;20337;-58
2021/03/28 06:34:18;;;;;;;6.23;2.03;;;7.90;99.90;;;;;;5080805;28;20269;-58
2021/03/28 06:37:24;;;;;;;4.47;1.37;;;8.00;99.90;;;;;;5080053;28;20195;-58
2021/03/28 06:40:16;;;;;;;7.93;1.70;;;8.00;99.90;;;;;;5082363;28;20205;-60
2021/03/28 06:43:17;;;;;;;4.90;1.47;;;8.00;99.90;;;;;;5081501;28;20607;-59
2021/03/28 06:46:13;;;;;;;4.63;1.73;;;8.10;99.90;;;;;;5082754;28;20233;-57
2021/03/28 06:49:12;;;;;;;3.77;1.37;;;8.20;99.90;;;;;;5083793;28;20312;-59
2021/03/28 06:51:43;;;;;;;2.50;1.20;;;8.30;99.90;;;;;;5080564;28;20757;-58
2021/03/28 06:54:24;;;;;;;3.87;1.73;;;8.20;99.90;;;;;;5084733;28;20252;-58
2021/03/28 06:57:09;;;;;;;9.50;1.70;;;8.20;99.90;;;;;;5084287;28;20709;-58
2021/03/28 07:00:00;;;;;;;3.10;1.63;;;8.30;99.90;;;;;;5086286;28;20316;-58
2021/03/28 07:03:15;;;;;;;5.73;1.80;;;8.40;99.90;;;;;;5084698;28;20307;-59
2021/03/28 07:06:01;;;;;;;6.13;1.60;;;8.60;99.90;;;;;;5081021;28;20298;-58
2021/03/28 07:08:45;;;;;;;10.43;1.97;;;8.60;99.90;;;;;;5081327;28;20269;-58
2021/03/28 07:11:20;;;;;;;2.63;1.30;;;8.60;99.90;;;;;;5081862;28;20198;-58
2021/03/28 07:14:08;;;;;;;9.63;1.70;;;8.60;99.90;;;;;;5084684;28;20306;-57
2021/03/28 07:16:59;;;;;;;3.20;1.57;;;8.70;99.90;;;;;;5083081;28;20555;-57
2021/03/28 07:19:34;;;;;;;7.80;2.20;;;8.70;99.90;;;;;;5085534;28;20575;-59
2021/03/28 07:22:31;;;;;;;3.93;1.73;;;8.80;99.90;;;;;;5062411;28;20634;-59
2021/03/28 07:25:17;;;;;;;4.30;1.80;;;8.90;99.90;;;;;;5087779;28;20206;-59
2021/03/28 07:28:14;;;;;;;7.70;2.27;;;8.90;99.90;;;;;;5083003;28;20249;-59
2021/03/28 07:30:54;;;;;;;5.13;1.63;;;9.10;99.90;;;;;;5085557;28;20231;-59
2021/03/28 07:33:23;;;;;;;3.73;1.93;;;9.40;99.90;;;;;;5081834;28;20304;-62
2021/03/28 07:36:17;;;;;;;6.77;1.97;;;9.50;99.90;;;;;;5079739;28;20203;-62
2021/03/28 07:38:59;;;;;;;8.73;2.00;;;9.60;99.90;;;;;;5083880;28;20641;-63
2021/03/28 07:41:43;;;;;;;5.13;1.93;;;9.90;99.90;;;;;;5082699;28;20305;-62
2021/03/28 07:44:46;;;;;;;5.73;1.50;;;10.00;99.90;;;;;;5084203;28;21800;-60
2021/03/28 07:47:15;;;;;;;4.07;1.33;;;10.10;99.90;;;;;;5065979;28;21085;-61
2021/03/28 07:50:19;;;;;;;4.10;1.50;;;10.00;99.90;;;;;;5078155;28;20233;-61
2021/03/28 07:53:24;;;;;;;4.53;1.83;;;10.10;99.90;;;;;;5066666;28;20313;-62
2021/03/28 07:56:16;;;;;;;8.57;2.47;;;10.20;99.90;;;;;;5068636;28;20684;-61
2021/03/28 07:58:57;;;;;;;4.93;1.73;;;10.30;99.90;;;;;;5066305;28;20257;-61
2021/03/28 08:01:55;;;;;;;4.73;1.70;;;10.30;99.90;;;;;;5088341;28;20191;-62
2021/03/28 08:04:53;;;;;;;8.30;1.93;;;10.30;99.90;;;;;;5080030;28;20616;-62
2021/03/28 08:07:28;;;;;;;6.13;1.60;;;10.40;1.00;;;;;;5061869;28;20722;-61
2021/03/28 08:09:57;;;;;;;4.97;1.70;;;10.60;1.00;;;;;;5085279;28;20225;-61
2021/03/28 08:12:44;;;;;;;4.70;1.93;;;10.80;1.00;;;;;;5083012;28;20260;-62
2021/03/28 08:15:22;;;;;;;8.03;2.10;;;10.90;1.00;;;;;;5083227;28;20275;-61
2021/03/28 08:18:21;;;;;;;6.27;1.90;;;10.80;1.00;;;;;;5079060;28;20540;-62
2021/03/28 08:21:08;;;;;;;10.57;3.33;;;10.90;1.00;;;;;;5079115;28;20225;-66
2021/03/28 08:23:41;;;;;;;11.13;2.27;;;11.00;1.00;;;;;;5082455;28;20210;-62
2021/03/28 08:26:16;;;;;;;5.50;1.50;;;11.10;1.00;;;;;;5089152;28;20275;-62
2021/03/28 08:29:07;;;;;;;4.87;1.87;;;11.00;1.00;;;;;;5083677;28;20234;-62
2021/03/28 08:32:00;;;;;;;4.50;1.60;;;11.20;1.00;;;;;;5070338;28;20199;-63
2021/03/28 08:34:42;;;;;;;4.97;1.90;;;11.30;1.00;;;;;;5087837;28;20234;-62
2021/03/28 08:37:27;;;;;;;5.13;2.03;;;11.60;1.00;;;;;;5083934;28;20285;-62
2021/03/28 08:40:02;;;;;;;4.27;1.77;;;11.70;99.90;;;;;;5082224;28;20262;-61
2021/03/28 08:42:55;;;;;;;13.47;2.73;;;11.90;99.90;;;;;;5088842;28;20259;-63
2021/03/28 08:45:52;;;;;;;8.20;2.30;;;11.80;99.90;;;;;;5081127;28;20243;-62
2021/03/28 08:48:44;;;;;;;5.23;2.70;;;11.80;99.90;;;;;;5085499;28;20587;-61
2021/03/28 08:51:17;;;;;;;7.00;2.50;;;11.80;99.90;;;;;;5081595;28;20289;-62
2021/03/28 08:54:10;;;;;;;6.33;2.27;;;11.90;99.90;;;;;;5080700;28;20255;-62
2021/03/28 08:56:57;;;;;;;11.93;2.17;;;11.70;43.20;;;;;;5076534;28;20199;-62
2021/03/28 08:59:41;;;;;;;4.33;1.90;;;11.80;58.40;;;;;;5085826;28;20260;-61
2021/03/28 09:02:36;;;;;;;7.87;2.50;;;11.80;99.90;;;;;;5079028;28;20658;-61
2021/03/28 09:05:19;;;;;;;6.57;1.80;;;11.90;99.90;;;;;;5059313;28;20212;-61
2021/03/28 09:08:15;;;;;;;11.07;2.43;;;12.10;99.90;;;;;;5086009;28;20734;-61
2021/03/28 09:11:10;;;;;;;7.53;1.50;;;12.00;1.00;;;;;;5057065;28;20673;-61
2021/03/28 09:13:42;;;;;;;2.00;1.13;;;11.90;1.00;;;;;;5068597;28;20221;-62
2021/03/28 09:16:23;;;;;;;9.20;2.57;;;12.10;1.00;;;;;;5082399;28;20195;-62
2021/03/28 09:19:23;;;;;;;1.87;1.23;;;12.10;1.00;;;;;;5083753;28;20193;-61
2021/03/28 09:22:04;;;;;;;5.77;1.43;;;12.10;1.00;;;;;;5064298;28;20629;-61
2021/03/28 09:24:33;;;;;;;7.40;1.63;;;12.10;1.00;;;;;;5088955;28;20191;-61
2021/03/28 09:27:18;;;;;;;4.00;1.33;;;12.20;89.00;;;;;;5082633;28;20252;-62
2021/03/28 09:29:49;;;;;;;6.13;1.33;;;12.30;1.00;;;;;;5086537;28;20203;-62
2021/03/28 09:32:43;;;;;;;4.97;1.30;;;12.40;1.00;;;;;;5081241;28;20216;-61
2021/03/28 09:35:21;;;;;;;8.63;1.40;;;12.70;99.90;;;;;;5088560;28;20231;-61
2021/03/28 09:38:05;;;;;;;3.93;1.13;;;13.00;1.00;;;;;;5064469;28;20281;-62
2021/03/28 09:40:51;;;;;;;3.47;1.13;;;13.20;1.00;;;;;;5080560;28;20223;-61
2021/03/28 09:43:52;;;;;;;3.23;1.07;;;12.90;1.00;;;;;;5080408;28;20238;-62
2021/03/28 09:46:45;;;;;;;4.70;1.27;;;12.60;1.00;;;;;;5082054;28;20348;-61
2021/03/28 09:49:18;;;;;;;5.93;1.20;;;12.40;1.00;;;;;;5081997;28;20262;-61
2021/03/28 09:52:02;;;;;;;2.87;0.97;;;12.40;1.00;;;;;;5086261;28;20272;-62
2021/03/28 09:54:57;;;;;;;1.97;0.80;;;12.50;99.90;;;;;;5083426;28;20201;-62
2021/03/28 09:57:39;;;;;;;6.20;0.93;;;12.50;1.00;;;;;;5084342;28;20636;-61
2021/03/28 10:00:22;;;;;;;5.30;1.50;;;12.70;99.90;;;;;;5086371;28;20242;-63
2021/03/28 10:03:17;;;;;;;6.27;1.33;;;12.70;99.90;;;;;;5073268;28;20222;-61
2021/03/28 10:05:44;;;;;;;3.70;1.23;;;12.70;1.00;;;;;;5077729;28;20199;-60
2021/03/28 10:08:14;;;;;;;5.70;1.40;;;12.70;99.90;;;;;;5085350;28;20192;-62
2021/03/28 10:10:46;;;;;;;3.33;1.23;;;12.50;1.00;;;;;;5073402;28;20195;-62
2021/03/28 10:13:33;;;;;;;2.03;1.10;;;12.50;1.00;;;;;;5080815;28;20847;-61
2021/03/28 10:16:11;;;;;;;7.27;1.20;;;12.80;99.90;;;;;;5071041;28;20608;-62
2021/03/28 10:18:51;;;;;;;3.53;1.37;;;12.70;99.90;;;;;;5074654;28;20255;-61
2021/03/28 10:21:36;;;;;;;4.53;0.97;;;12.70;1.00;;;;;;5075937;28;20719;-62
2021/03/28 10:24:25;;;;;;;4.20;1.47;;;12.60;1.00;;;;;;5077986;28;20206;-61
2021/03/28 10:27:39;;;;;;;4.33;1.10;;;12.50;99.90;;;;;;5084919;28;20633;-61
2021/03/28 10:30:18;;;;;;;3.53;0.97;;;12.50;1.00;;;;;;5077825;28;20267;-62
2021/03/28 10:33:14;;;;;;;3.77;1.20;;;12.60;99.90;;;;;;5076570;28;20244;-62
2021/03/28 10:35:59;;;;;;;3.33;1.17;;;12.90;1.00;;;;;;5074946;28;20194;-63
2021/03/28 10:38:30;;;;;;;1.60;0.90;;;13.10;1.00;;;;;;5077303;28;20308;-62
2021/03/28 10:41:10;;;;;;;4.13;0.73;;;12.60;99.90;;;;;;5083160;28;20678;-62
2021/03/28 10:43:55;;;;;;;4.50;1.33;;;12.70;1.00;;;;;;5079527;28;20201;-63
2021/03/28 10:46:43;;;;;;;3.33;1.30;;;12.70;99.90;;;;;;5077112;28;20205;-63
2021/03/28 10:49:47;;;;;;;9.40;1.37;;;12.70;1.00;;;;;;5079343;28;20538;-62
2021/03/28 10:52:59;;;;;;;1.83;0.80;;;12.60;1.00;;;;;;5064638;28;20201;-64
2021/03/28 10:55:44;;;;;;;8.30;0.90;;;12.60;99.90;;;;;;5083494;28;20198;-62
2021/03/28 10:58:48;;;;;;;8.23;1.60;;;12.50;99.90;;;;;;5077975;28;20216;-62
2021/03/28 11:01:33;;;;;;;7.93;1.43;;;12.30;99.90;;;;;;5070950;28;20205;-63
2021/03/28 11:04:10;;;;;;;5.17;1.63;;;12.30;1.00;;;;;;5076572;28;20230;-62
2021/03/28 11:06:56;;;;;;;4.53;1.57;;;12.30;1.00;;;;;;5077770;28;20206;-61
2021/03/28 11:09:43;;;;;;;4.60;1.50;;;12.20;1.00;;;;;;5072383;28;20200;-62
2021/03/28 11:12:22;;;;;;;4.60;1.43;;;12.30;1.00;;;;;;5078165;28;20201;-61
2021/03/28 11:15:12;;;;;;;6.23;1.30;;;12.10;1.00;;;;;;5078576;28;20622;-62
2021/03/28 11:17:41;;;;;;;4.20;1.50;;;12.10;1.00;;;;;;5075530;28;20206;-64
2021/03/28 11:20:35;;;;;;;7.87;1.93;;;12.20;1.00;;;;;;5076093;28;20224;-62
2021/03/28 11:23:33;;;;;;;8.47;1.80;;;12.20;99.90;;;;;;5074764;28;20204;-62
2021/03/28 11:26:34;;;;;;;5.63;1.67;;;12.20;1.00;;;;;;5071102;28;20304;-62
2021/03/28 11:29:14;;;;;;;4.37;1.50;;;12.20;1.00;;;;;;5078247;28;20606;-62
2021/03/28 11:32:14;;;;;;;4.73;1.90;;;12.20;1.00;;;;;;5075508;28;20234;-62
2021/03/28 11:35:11;;;;;;;6.83;1.57;;;12.20;99.90;;;;;;5077935;28;20230;-63
2021/03/28 11:37:43;;;;;;;3.10;1.17;;;12.20;99.90;;;;;;5077622;28;20626;-62
2021/03/28 11:40:35;;;;;;;4.93;1.37;;;12.10;1.00;;;;;;5077184;28;20303;-61
2021/03/28 11:43:07;;;;;;;6.37;1.60;;;12.10;1.00;;;;;;5081042;28;20199;-65
2021/03/28 11:45:42;;;;;;;2.40;1.20;;;12.20;1.00;;;;;;5080367;28;20205;-63
2021/03/28 11:48:44;;;;;;;4.47;1.10;;;12.30;99.90;;;;;;5074013;28;20200;-62
2021/03/28 11:51:18;;;;;;;5.50;1.57;;;12.30;1.00;;;;;;5078866;28;20199;-62
2021/03/28 11:53:49;;;;;;;5.47;1.37;;;12.30;99.90;;;;;;5075337;28;20214;-63
2021/03/28 11:56:35;;;;;;;3.30;1.20;;;12.30;99.90;;;;;;5076721;28;20198;-62
2021/03/28 11:59:22;;;;;;;9.00;1.40;;;12.40;20.10;;;;;;5077065;28;20204;-57
2021/03/28 12:01:58;;;;;;;4.30;1.50;;;12.40;99.90;;;;;;5031307;23;20295;-78
2021/03/28 12:04:35;;;;;;;7.73;1.80;;;12.40;99.90;;;;;;5032964;28;20285;-80
2021/03/28 12:07:26;;;;;;;5.40;2.10;;;12.40;1.00;;;;;;5038275;28;20204;-81
2021/03/28 12:10:16;;;;;;;4.27;1.60;;;12.40;99.90;;;;;;5055242;28;20264;-80
2021/03/28 12:12:48;;;;;;;4.57;1.70;;;12.50;1.00;;;;;;5036230;28;20222;-81
2021/03/28 12:15:46;;;;;;;2.40;0.97;;;12.40;99.90;;;;;;5053274;28;20211;-81
2021/03/28 12:18:26;;;;;;;6.53;1.57;;;12.40;1.00;;;;;;5034865;28;20206;-81
2021/03/28 12:20:58;;;;;;;3.80;1.50;;;12.50;99.90;;;;;;5031907;28;20562;-82
2021/03/28 12:23:28;;;;;;;5.97;1.50;;;12.40;99.90;;;;;;5032906;28;20218;-81
2021/03/28 12:26:08;;;;;;;5.50;1.07;;;12.50;1.00;;;;;;5035607;28;20211;-80
2021/03/28 12:28:50;;;;;;;5.87;1.43;;;12.40;1.00;;;;;;5035161;28;20531;-80
2021/03/28 12:31:37;;;;;;;2.20;1.43;;;12.50;1.00;;;;;;5050057;28;20203;-80
2021/03/28 12:34:22;;;;;;;4.03;1.37;;;12.40;1.00;;;;;;5046877;28;20704;-78
2021/03/28 12:36:50;;;;;;;6.07;1.70;;;12.60;99.90;;;;;;5050757;28;20260;-78
2021/03/28 12:39:22;;;;;;;5.40;1.27;;;12.50;19.20;;;;;;5047448;28;20200;-80
2021/03/28 12:42:30;;;;;;;2.93;1.40;;;12.60;1.00;;;;;;5036203;28;20235;-80
2021/03/28 12:45:09;;;;;;;7.37;1.90;;;12.80;1.00;;;;;;5036001;28;20616;-80
2021/03/28 12:47:49;;;;;;;8.67;1.53;;;12.80;1.00;;;;;;5051894;28;20276;-79
2021/03/28 12:50:19;;;;;;;10.27;1.40;;;12.70;1.00;;;;;;5037570;28;20647;-80
2021/03/28 12:53:01;;;;;;;8.03;1.70;;;12.60;1.00;;;;;;5041170;28;20227;-80
2021/03/28 12:55:28;;;;;;;2.93;1.40;;;12.60;1.00;;;;;;5054135;28;20199;-79
2021/03/28 12:58:08;;;;;;;6.20;1.63;;;12.70;22.40;;;;;;5038122;28;20214;-80
2021/03/28 13:00:49;;;;;;;5.33;1.70;;;12.80;1.00;;;;;;5035094;28;20530;-81
2021/03/28 13:03:38;;;;;;;6.60;2.13;;;12.70;67.40;;;;;;5051710;28;20245;-80
2021/03/28 13:06:41;;;;;;;7.03;2.00;;;12.70;1.00;;;;;;5051357;28;20205;-80
2021/03/28 13:09:10;;;;;;;4.60;1.67;;;12.70;99.90;;;;;;5030858;28;20218;-81
2021/03/28 13:11:44;;;;;;;3.23;1.80;;;12.70;1.00;;;;;;5037253;28;20646;-80
2021/03/28 13:14:33;;;;;;;4.07;1.77;;;12.70;99.90;;;;;;5052305;28;20230;-80
2021/03/28 13:17:23;;;;;;;8.87;2.43;;;12.80;99.90;;;;;;5028677;28;20268;-80
2021/03/28 13:19:53;;;;;;;6.43;2.63;;;12.80;99.90;;;;;;5027786;28;20216;-80
2021/03/28 13:22:28;;;;;;;5.93;2.60;;;12.90;1.00;;;;;;5029785;28;20202;-80
2021/03/28 13:25:16;;;;;;;4.40;2.23;;;12.90;1.00;;;;;;5035256;28;20270;-80
2021/03/28 13:28:03;;;;;;;5.00;2.80;;;12.80;99.90;;;;;;5051039;28;20207;-81
2021/03/28 13:30:37;;;;;;;9.13;2.83;;;12.90;1.00;;;;;;5051284;28;20213;-80
2021/03/28 13:33:29;;;;;;;5.43;3.43;;;12.80;1.00;;;;;;5048888;28;20308;-81
2021/03/28 13:35:57;;;;;;;8.30;3.07;;;12.80;99.90;;;;;;5049992;28;20274;-80
2021/03/28 13:38:26;;;;;;;8.27;3.27;;;12.80;1.00;;;;;;5020583;28;20285;-80
2021/03/28 13:41:05;;;;;;;7.60;3.20;;;12.80;1.00;;;;;;5034230;28;20221;-80
2021/03/28 13:43:38;;;;;;;6.10;2.60;;;12.80;1.00;;;;;;5037001;28;20639;-81
2021/03/28 13:46:13;;;;;;;9.03;3.27;;;12.70;99.90;;;;;;5031273;28;20216;-80
2021/03/28 13:48:41;;;;;;;5.57;2.23;;;12.70;1.00;;;;;;5033907;28;20304;-80
2021/03/28 13:51:13;;;;;;;12.87;2.67;;;12.70;1.00;;;;;;5033117;28;20210;-79
2021/03/28 13:53:40;;;;;;;5.87;2.17;;;12.70;1.00;;;;;;5045195;28;20224;-82
2021/03/28 13:56:47;;;;;;;3.70;2.33;;;12.60;1.00;;;;;;5033124;28;20210;-79
2021/03/28 13:59:21;;;;;;;7.77;2.07;;;12.60;1.00;;;;;;5032107;28;20249;-80
2021/03/28 14:01:56;;;;;;;6.73;2.27;;;12.60;1.00;;;;;;5028910;28;20209;-80
2021/03/28 14:04:36;;;;;;;6.90;2.00;;;12.70;79.90;;;;;;5033627;28;21094;-80
2021/03/28 14:07:11;;;;;;;4.17;1.67;;;12.80;99.90;;;;;;5055916;28;20238;-81
2021/03/28 14:09:42;;;;;;;8.50;2.23;;;12.80;99.90;;;;;;5039220;28;20210;-82
2021/03/28 14:12:20;;;;;;;5.33;1.67;;;12.80;78.80;;;;;;5036817;28;20203;-80
2021/03/28 14:14:48;;;;;;;6.90;1.57;;;12.80;1.00;;;;;;5053981;28;20621;-81
2021/03/28 14:17:26;;;;;;;2.87;1.47;;;12.90;1.00;;;;;;5024061;28;20208;-80
2021/03/28 14:20:25;;;;;;;5.37;1.87;;;12.90;1.00;;;;;;5035397;28;20196;-81
2021/03/28 14:22:56;;;;;;;6.40;1.70;;;13.00;1.00;;;;;;5039955;28;20862;-80
2021/03/28 14:25:45;;;;;;;4.07;2.20;;;13.10;99.90;;;;;;5034772;28;20861;-80
2021/03/28 14:28:27;;;;;;;6.53;1.80;;;13.00;99.90;;;;;;5038233;28;20203;-81